Time;durP1;ratioP1;P1;durP2;ratioP2;P2;SDS_P1;SDS_P2;PMS_P1;PMS_P2;Temp;Humidity;BMP_temperature;BMP_pressure;BME280_temperature;BME280_humidity;BME280_pressure;Samples;Min_cycle;Max_cycle;Signal;HPM_P1;HPM_P2
2021/12/05 00:18:10;;;;;;;2.00;1.10;;;14.00;72.80;;;;;;4172353;28;20137;-72
2021/12/05 00:23:11;;;;;;;2.97;1.20;;;14.00;73.00;;;;;;4188381;28;20072;-71
2021/12/05 00:25:07;;;;;;;1.92;0.95;;;14.00;72.90;;;;;;4184998;28;20057;-70
2021/12/05 00:27:20;;;;;;;0.98;0.60;;;14.00;72.90;;;;;;4187861;28;20112;-70
2021/12/05 00:34:03;;;;;;;1.13;0.70;;;14.00;72.90;;;;;;4187421;28;20138;-69
2021/12/05 00:41:33;;;;;;;2.60;1.00;;;13.90;72.90;;;;;;4175307;28;20159;-70
2021/12/05 00:49:59;;;;;;;2.40;0.90;;;13.90;73.00;;;;;;4190736;28;20061;-74
2021/12/05 01:15:05;;;;;;;1.63;0.80;;;13.90;72.90;;;;;;4176079;28;20124;-71
2021/12/05 01:17:08;;;;;;;2.70;0.68;;;13.90;72.90;;;;;;4179496;28;20045;-71
2021/12/05 01:19:13;;;;;;;1.25;0.75;;;13.80;73.50;;;;;;4190397;28;20068;-70
2021/12/05 01:21:20;;;;;;;1.88;0.80;;;13.80;72.90;;;;;;4189889;28;20077;-71
2021/12/05 01:27:42;;;;;;;1.27;0.75;;;13.80;72.90;;;;;;4184494;28;20069;-69
2021/12/05 01:29:58;;;;;;;2.17;1.13;;;13.80;72.90;;;;;;4173970;28;20484;-69
2021/12/05 01:34:33;;;;;;;0.80;0.70;;;13.80;72.90;;;;;;4190469;28;20369;-70
2021/12/05 01:39:07;;;;;;;3.45;0.90;;;13.80;73.00;;;;;;4189732;28;20076;-69
2021/12/05 01:46:26;;;;;;;1.38;0.65;;;13.80;73.30;;;;;;4189157;28;20357;-73
2021/12/05 01:58:57;;;;;;;1.27;0.70;;;13.80;72.70;;;;;;4190729;28;20075;-71
2021/12/05 02:44:56;;;;;;;2.25;0.80;;;13.60;72.60;;;;;;4188202;28;20068;-71
2021/12/05 02:47:13;;;;;;;1.58;0.63;;;13.60;72.50;;;;;;4188752;28;20068;-70
2021/12/05 02:49:17;;;;;;;2.75;0.80;;;13.60;72.50;;;;;;4189097;28;20069;-69
2021/12/05 02:51:24;;;;;;;1.98;0.75;;;13.60;72.60;;;;;;4188879;28;20096;-70
2021/12/05 02:53:41;;;;;;;1.75;0.82;;;13.60;72.50;;;;;;4187789;28;20073;-69
2021/12/05 02:55:45;;;;;;;1.67;1.00;;;13.60;72.60;;;;;;4171084;28;20073;-70
2021/12/05 02:57:53;;;;;;;2.05;0.60;;;13.60;72.60;;;;;;4188896;28;20068;-73
2021/12/05 02:59:58;;;;;;;1.38;0.70;;;13.60;72.40;;;;;;4187360;28;20099;-71
2021/12/05 03:02:07;;;;;;;;;;;13.60;72.40;;;;;;4173315;28;20072;-71
2021/12/05 03:04:10;;;;;;;1.27;0.80;;;13.50;72.50;;;;;;4180873;28;19984;-70
2021/12/05 03:06:20;;;;;;;2.00;0.73;;;13.60;72.50;;;;;;4188579;28;20112;-69
2021/12/05 03:08:24;;;;;;;1.85;0.70;;;13.60;72.40;;;;;;4188432;28;20068;-70
2021/12/05 03:10:30;;;;;;;2.17;0.90;;;13.60;72.50;;;;;;4188110;28;20072;-70
2021/12/05 03:12:38;;;;;;;2.00;0.82;;;13.60;72.50;;;;;;4188678;28;20553;-70
2021/12/05 03:14:41;;;;;;;1.25;0.60;;;13.50;72.50;;;;;;4188110;28;20109;-71
2021/12/05 03:16:45;;;;;;;1.23;0.68;;;13.60;72.40;;;;;;4188752;28;20073;-71
2021/12/05 03:18:49;;;;;;;1.38;0.60;;;13.50;72.40;;;;;;4188466;28;20156;-70
2021/12/05 03:20:52;;;;;;;1.60;0.70;;;13.50;72.50;;;;;;4173810;28;20116;-72
2021/12/05 03:22:55;;;;;;;2.75;0.80;;;13.50;72.40;;;;;;4189531;28;20453;-70
2021/12/05 03:24:58;;;;;;;1.42;0.60;;;13.50;72.40;;;;;;4188729;28;20079;-73
2021/12/05 03:27:03;;;;;;;2.65;1.00;;;13.50;72.40;;;;;;4189186;28;20069;-70
2021/12/05 03:29:10;;;;;;;2.30;0.80;;;13.50;72.50;;;;;;4188599;28;20068;-70
2021/12/05 03:31:13;;;;;;;1.30;0.70;;;13.50;72.40;;;;;;4188551;28;20068;-70
2021/12/05 03:33:16;;;;;;;1.50;0.70;;;13.50;72.30;;;;;;4188263;28;20073;-70
2021/12/05 03:35:22;;;;;;;0.88;0.60;;;13.50;72.30;;;;;;4187694;28;20068;-69
2021/12/05 03:37:25;;;;;;;2.10;0.80;;;13.50;72.40;;;;;;4188596;28;20065;-70
2021/12/05 03:39:28;;;;;;;2.17;0.70;;;13.50;72.30;;;;;;4187785;28;20057;-71
2021/12/05 03:41:32;;;;;;;1.00;0.60;;;13.50;72.30;;;;;;4173315;28;20076;-70
2021/12/05 03:43:37;;;;;;;1.05;0.70;;;13.50;72.40;;;;;;4171065;28;20076;-71
2021/12/05 03:45:44;;;;;;;1.45;0.68;;;13.40;72.50;;;;;;4170716;28;20124;-71
2021/12/05 03:47:48;;;;;;;2.65;0.80;;;13.40;73.00;;;;;;4188699;28;20296;-71
2021/12/05 03:49:51;;;;;;;2.15;0.60;;;13.40;72.40;;;;;;4188626;28;20079;-74
2021/12/05 03:51:59;;;;;;;1.80;0.60;;;13.40;72.40;;;;;;4174640;28;20103;-71
2021/12/05 03:54:03;;;;;;;1.67;0.80;;;13.40;72.30;;;;;;4188749;28;20073;-70
2021/12/05 03:56:08;;;;;;;1.83;0.83;;;13.40;72.40;;;;;;4187503;28;20420;-70
2021/12/05 03:58:12;;;;;;;1.38;0.50;;;13.40;72.50;;;;;;4188177;28;20112;-70
2021/12/05 04:00:20;;;;;;;0.70;0.50;;;13.40;72.60;;;;;;4187470;28;20080;-71
2021/12/05 04:02:23;;;;;;;1.88;0.77;;;13.40;72.50;;;;;;4188450;28;20068;-70
2021/12/05 04:04:27;;;;;;;0.85;0.52;;;13.40;72.40;;;;;;4188683;28;20117;-71
2021/12/05 04:06:31;;;;;;;2.55;0.60;;;13.40;72.50;;;;;;4188120;28;20116;-69
2021/12/05 04:08:35;;;;;;;1.33;0.90;;;13.40;72.50;;;;;;4188496;28;20048;-69
2021/12/05 04:10:42;;;;;;;1.10;0.60;;;13.40;72.40;;;;;;4188758;28;20068;-70
2021/12/05 04:12:45;;;;;;;1.08;0.60;;;13.40;72.40;;;;;;4189014;28;20506;-70
2021/12/05 04:14:54;;;;;;;2.17;0.77;;;13.40;72.50;;;;;;4189291;28;20073;-70
2021/12/05 04:16:59;;;;;;;1.80;0.63;;;13.40;72.50;;;;;;4188199;28;20372;-70
2021/12/05 04:19:03;;;;;;;;;;;13.40;72.50;;;;;;4188763;28;20301;-70
2021/12/05 04:21:07;;;;;;;1.95;0.70;;;13.40;72.50;;;;;;4188084;28;19936;-70
2021/12/05 04:23:10;;;;;;;2.17;0.63;;;13.40;72.60;;;;;;4191006;28;20069;-69
2021/12/05 04:25:16;;;;;;;1.35;0.60;;;13.30;72.50;;;;;;4191621;28;20101;-70
2021/12/05 04:27:19;;;;;;;1.42;0.60;;;13.30;72.40;;;;;;4190542;28;20136;-70
2021/12/05 04:29:22;;;;;;;0.93;0.50;;;13.30;72.50;;;;;;4191112;28;20404;-69
2021/12/05 04:31:25;;;;;;;1.77;0.70;;;13.30;72.40;;;;;;4173427;28;20095;-69
2021/12/05 04:33:30;;;;;;;2.65;0.73;;;13.30;72.50;;;;;;4190733;28;20405;-68
2021/12/05 04:35:33;;;;;;;1.30;0.60;;;13.30;72.30;;;;;;4190695;28;20072;-69
2021/12/05 04:37:37;;;;;;;2.33;0.70;;;13.30;72.40;;;;;;4189236;28;20120;-69
2021/12/05 04:39:40;;;;;;;1.25;0.60;;;13.30;72.40;;;;;;4189601;28;20147;-70
2021/12/05 04:41:44;;;;;;;1.67;0.60;;;13.30;72.30;;;;;;4189111;28;20129;-70
2021/12/05 04:43:47;;;;;;;2.10;0.60;;;13.30;72.20;;;;;;4188867;28;20388;-70
2021/12/05 04:45:50;;;;;;;4.43;0.90;;;13.30;72.30;;;;;;4189899;28;20083;-70
2021/12/05 04:47:55;;;;;;;1.63;0.68;;;13.30;72.10;;;;;;4189265;28;20068;-70
2021/12/05 04:49:59;;;;;;;1.13;0.57;;;13.30;72.30;;;;;;4189719;28;20072;-69
2021/12/05 04:52:03;;;;;;;1.30;0.65;;;13.30;72.20;;;;;;4189546;28;20069;-70
2021/12/05 04:54:10;;;;;;;1.58;0.50;;;13.30;72.20;;;;;;4189993;28;20120;-71
2021/12/05 04:56:13;;;;;;;2.38;0.73;;;13.30;72.30;;;;;;4172705;28;20060;-70
2021/12/05 04:58:16;;;;;;;0.93;0.60;;;13.30;72.10;;;;;;4189552;28;20158;-70
2021/12/05 05:00:23;;;;;;;1.77;0.70;;;13.30;72.30;;;;;;4190718;28;20068;-70
2021/12/05 05:02:27;;;;;;;1.58;0.68;;;13.30;72.20;;;;;;4190543;28;20108;-72
2021/12/05 05:04:36;;;;;;;1.17;0.50;;;13.30;72.10;;;;;;4189971;28;20069;-69
2021/12/05 05:06:41;;;;;;;1.75;0.60;;;13.30;72.10;;;;;;4189841;28;20503;-69
2021/12/05 05:08:47;;;;;;;1.05;0.55;;;13.30;72.00;;;;;;4188912;28;20056;-70
2021/12/05 05:10:50;;;;;;;1.75;0.73;;;13.30;72.10;;;;;;4189337;28;20075;-69
2021/12/05 05:12:53;;;;;;;1.48;0.50;;;13.30;72.10;;;;;;4189517;28;20108;-69
2021/12/05 05:14:56;;;;;;;2.60;0.63;;;13.20;71.90;;;;;;4189392;28;20295;-69
2021/12/05 05:17:00;;;;;;;1.90;0.70;;;13.30;72.10;;;;;;4189699;28;20116;-69
2021/12/05 05:19:03;;;;;;;1.40;0.50;;;13.20;71.90;;;;;;4189134;28;20065;-70
2021/12/05 05:21:14;;;;;;;2.30;0.60;;;13.20;71.90;;;;;;4189110;28;20511;-70
2021/12/05 05:23:39;;;;;;;1.52;0.47;;;13.20;71.80;;;;;;4189077;28;20081;-69
2021/12/05 05:50:15;;;;;;;1.65;0.85;;;13.20;72.10;;;;;;4190333;28;20060;-70
2021/12/05 05:52:19;;;;;;;1.83;0.75;;;13.10;72.20;;;;;;4190424;28;20072;-72
2021/12/05 05:54:22;;;;;;;1.35;0.60;;;13.20;72.10;;;;;;4189440;28;20108;-69
2021/12/05 05:56:29;;;;;;;2.72;0.60;;;13.20;72.00;;;;;;4189567;28;20073;-71
2021/12/05 05:58:48;;;;;;;3.40;0.68;;;13.20;72.10;;;;;;4190124;28;20053;-69
2021/12/05 06:01:03;;;;;;;2.55;0.88;;;13.20;72.10;;;;;;4189512;28;20075;-70
2021/12/05 06:03:21;;;;;;;1.67;0.65;;;13.10;72.00;;;;;;4173129;28;20160;-73
2021/12/05 06:05:25;;;;;;;1.65;0.60;;;13.20;72.00;;;;;;4183788;28;20368;-69
2021/12/05 06:07:29;;;;;;;1.02;0.40;;;13.10;72.10;;;;;;4189633;28;20108;-70
2021/12/05 06:09:32;;;;;;;2.92;0.70;;;13.10;72.00;;;;;;4189302;28;20119;-71
2021/12/05 06:11:37;;;;;;;1.80;0.68;;;13.10;71.90;;;;;;4173259;28;20053;-70
2021/12/05 06:13:40;;;;;;;0.68;0.45;;;13.10;72.00;;;;;;4190410;28;20076;-70
2021/12/05 06:15:44;;;;;;;2.35;1.20;;;13.10;71.90;;;;;;4189774;28;20060;-69
2021/12/05 06:17:47;;;;;;;1.20;0.60;;;13.10;71.90;;;;;;4189760;28;20333;-69
2021/12/05 06:19:51;;;;;;;2.60;0.63;;;13.10;72.00;;;;;;4189222;28;20068;-69
2021/12/05 06:21:54;;;;;;;1.27;0.60;;;13.10;71.90;;;;;;4183973;28;20073;-69
2021/12/05 06:23:57;;;;;;;1.20;0.70;;;13.10;72.00;;;;;;4173291;28;20069;-70
2021/12/05 06:26:01;;;;;;;1.80;0.55;;;13.10;71.90;;;;;;4182675;28;20095;-70
2021/12/05 06:28:12;;;;;;;2.85;1.05;;;13.10;71.90;;;;;;4189925;28;20064;-71
2021/12/05 06:30:21;;;;;;;2.13;0.68;;;13.10;72.00;;;;;;4189637;28;20068;-72
2021/12/05 06:37:26;;;;;;;2.90;0.70;;;13.10;72.20;;;;;;4189439;28;20407;-70
2021/12/05 06:39:42;;;;;;;3.35;0.88;;;13.00;72.10;;;;;;4173823;28;20341;-73
2021/12/05 06:48:29;;;;;;;2.15;0.82;;;13.00;72.00;;;;;;4188987;28;20053;-70
2021/12/05 06:50:33;;;;;;;3.13;0.70;;;13.00;71.90;;;;;;4189124;28;20116;-69
2021/12/05 06:52:36;;;;;;;1.67;0.60;;;13.00;71.90;;;;;;4188585;28;20084;-69
2021/12/05 06:54:40;;;;;;;4.15;0.77;;;13.10;72.10;;;;;;4188679;28;20075;-69
2021/12/05 06:56:43;;;;;;;3.67;1.10;;;13.00;72.10;;;;;;4188596;28;20068;-68
2021/12/05 06:58:47;;;;;;;1.75;0.90;;;13.00;72.00;;;;;;4188762;28;20412;-70
2021/12/05 07:00:51;;;;;;;2.85;1.05;;;13.00;72.00;;;;;;4188943;28;20288;-71
2021/12/05 07:02:54;;;;;;;1.52;0.57;;;13.00;72.10;;;;;;4188354;28;20337;-69
2021/12/05 07:07:12;;;;;;;3.10;0.95;;;13.00;72.10;;;;;;4188455;28;20044;-70
2021/12/05 07:09:16;;;;;;;4.97;1.05;;;13.00;72.20;;;;;;4188882;28;20079;-70
2021/12/05 07:16:47;;;;;;;3.60;1.10;;;13.00;72.10;;;;;;4172080;28;20290;-69
2021/12/05 07:25:12;;;;;;;3.08;0.90;;;13.00;72.00;;;;;;4189497;28;20079;-70
2021/12/05 07:41:49;;;;;;;2.30;1.02;;;13.00;72.30;;;;;;4171394;28;20083;-70
2021/12/05 07:43:47;;;;;;;2.58;1.00;;;12.90;72.30;;;;;;4182290;28;20064;-69
2021/12/05 07:45:54;;;;;;;3.80;0.85;;;12.90;73.00;;;;;;4188227;28;20148;-69
2021/12/05 07:48:04;;;;;;;2.53;0.80;;;12.90;72.30;;;;;;4187325;28;20117;-69
2021/12/05 07:50:10;;;;;;;3.47;1.15;;;13.00;72.30;;;;;;4187761;28;20064;-69
2021/12/05 07:52:21;;;;;;;3.13;1.00;;;13.00;72.30;;;;;;4188032;28;20072;-69
2021/12/05 07:56:42;;;;;;;2.92;0.82;;;13.00;72.40;;;;;;4187994;28;20117;-71
2021/12/05 08:15:38;;;;;;;2.05;0.77;;;12.90;72.50;;;;;;4188141;28;20108;-69
2021/12/05 08:17:50;;;;;;;2.28;0.98;;;12.90;72.30;;;;;;4188194;28;20080;-69
2021/12/05 08:19:53;;;;;;;3.85;1.02;;;12.90;72.40;;;;;;4187626;28;20124;-70
2021/12/05 08:21:58;;;;;;;3.42;0.98;;;12.90;72.50;;;;;;4188276;28;20136;-70
2021/12/05 08:24:01;;;;;;;2.10;0.93;;;12.90;72.40;;;;;;4187644;28;20080;-70
2021/12/05 08:26:17;;;;;;;2.13;1.00;;;12.90;72.30;;;;;;4187990;28;20113;-69
2021/12/05 08:36:10;;;;;;;2.45;0.90;;;12.90;72.50;;;;;;4182795;28;20577;-70
2021/12/05 09:20:56;;;;;;;5.93;1.10;;;12.90;73.10;;;;;;4190466;28;20076;-69
2021/12/05 10:02:35;;;;;;;3.55;1.25;;;13.00;72.50;;;;;;4173536;28;20117;-70
2021/12/05 10:11:38;;;;;;;5.72;1.58;;;12.90;72.50;;;;;;4189674;28;20112;-70
2021/12/05 10:26:07;;;;;;;2.28;1.10;;;13.00;72.50;;;;;;4171991;28;20069;-69
2021/12/05 10:37:19;;;;;;;3.78;1.45;;;13.00;72.60;;;;;;4173941;28;20083;-69
2021/12/05 10:39:23;;;;;;;4.30;1.17;;;13.00;72.60;;;;;;4182479;28;20052;-69
2021/12/05 10:43:34;;;;;;;4.85;1.40;;;13.00;72.60;;;;;;4189420;28;20115;-70
2021/12/05 10:45:40;;;;;;;3.60;1.30;;;13.00;72.60;;;;;;4189142;28;20115;-69
2021/12/05 10:47:47;;;;;;;3.65;1.33;;;13.00;72.60;;;;;;4189491;28;20079;-70
2021/12/05 10:49:50;;;;;;;3.17;1.20;;;13.00;72.60;;;;;;4189134;28;20284;-69
2021/12/05 10:51:57;;;;;;;2.33;1.17;;;13.00;72.40;;;;;;4190258;28;20080;-70
2021/12/05 10:54:05;;;;;;;3.35;1.25;;;13.00;72.50;;;;;;4171726;28;20417;-70
2021/12/05 10:56:17;;;;;;;5.03;1.52;;;12.90;72.60;;;;;;4188856;28;20124;-69
2021/12/05 10:58:21;;;;;;;4.90;1.45;;;13.00;72.80;;;;;;4188964;28;20099;-69
2021/12/05 11:00:24;;;;;;;5.05;1.80;;;13.00;72.50;;;;;;4188061;28;20116;-69
2021/12/05 11:02:30;;;;;;;2.67;1.15;;;13.00;72.50;;;;;;4188880;28;20069;-69
2021/12/05 11:04:41;;;;;;;4.68;1.45;;;13.00;72.50;;;;;;4188191;28;20341;-70
2021/12/05 11:06:50;;;;;;;5.82;2.08;;;13.00;72.50;;;;;;4188683;28;20116;-69
2021/12/05 11:08:57;;;;;;;3.30;1.20;;;13.00;72.50;;;;;;4188446;28;20077;-69
2021/12/05 11:11:09;;;;;;;4.32;1.30;;;13.00;72.60;;;;;;4188700;28;20071;-69
2021/12/05 11:13:26;;;;;;;4.63;1.45;;;13.00;72.60;;;;;;4188124;28;20125;-71
2021/12/05 11:15:34;;;;;;;5.30;1.17;;;13.00;72.70;;;;;;4170909;28;20117;-70
2021/12/05 11:17:41;;;;;;;3.88;1.20;;;13.00;72.60;;;;;;4188597;28;20080;-69
2021/12/05 11:19:48;;;;;;;2.03;1.00;;;13.00;72.70;;;;;;4188449;28;20117;-69
2021/12/05 11:22:07;;;;;;;3.70;1.27;;;13.00;72.70;;;;;;4189013;28;20077;-70
2021/12/05 11:24:12;;;;;;;4.10;1.20;;;13.00;72.80;;;;;;4189309;28;20304;-70
2021/12/05 11:26:16;;;;;;;;;;;13.00;72.70;;;;;;4189539;28;20096;-69
2021/12/05 11:28:24;;;;;;;2.85;1.23;;;13.00;72.70;;;;;;4188741;28;20078;-69
2021/12/05 11:30:33;;;;;;;4.35;1.27;;;13.00;72.70;;;;;;4187710;28;20360;-69
2021/12/05 11:32:39;;;;;;;3.58;1.30;;;12.90;72.70;;;;;;4188466;28;20071;-70
2021/12/05 11:34:42;;;;;;;3.38;1.27;;;12.90;72.70;;;;;;4188550;28;20305;-70
2021/12/05 11:36:56;;;;;;;3.97;1.20;;;13.00;72.80;;;;;;4187628;28;20380;-69
2021/12/05 11:39:18;;;;;;;3.80;1.08;;;12.90;72.70;;;;;;4188396;28;20079;-70
2021/12/05 11:41:23;;;;;;;4.03;1.20;;;13.00;72.80;;;;;;4187993;28;20077;-71
2021/12/05 11:43:30;;;;;;;4.72;1.27;;;12.90;72.80;;;;;;4188447;28;20075;-70
2021/12/05 11:45:50;;;;;;;2.60;1.35;;;12.90;72.80;;;;;;4187954;28;20346;-70
2021/12/05 11:47:54;;;;;;;3.72;1.30;;;12.90;72.90;;;;;;4174829;28;20136;-70
2021/12/05 11:50:05;;;;;;;2.15;1.00;;;12.90;72.70;;;;;;4188322;28;20116;-70
2021/12/05 11:52:10;;;;;;;1.73;1.05;;;13.00;73.30;;;;;;4187764;28;20072;-69
2021/12/05 11:54:14;;;;;;;;;;;12.90;73.40;;;;;;4188671;28;20056;-70
2021/12/05 11:56:21;;;;;;;2.55;1.20;;;13.00;73.40;;;;;;4187773;28;19943;-70
2021/12/05 11:58:24;;;;;;;2.30;1.20;;;12.90;73.50;;;;;;4170375;28;20064;-70
2021/12/05 12:00:28;;;;;;;3.80;1.20;;;13.00;73.60;;;;;;4188113;28;20409;-69
2021/12/05 12:02:34;;;;;;;3.22;1.20;;;13.00;73.50;;;;;;4187362;28;20117;-70
2021/12/05 12:04:45;;;;;;;5.22;1.38;;;13.00;73.50;;;;;;4187755;28;20048;-70
2021/12/05 12:07:16;;;;;;;3.08;1.23;;;13.00;74.00;;;;;;4186976;28;20071;-70
2021/12/05 12:09:20;;;;;;;3.95;1.15;;;13.00;73.40;;;;;;4171607;28;20488;-70
2021/12/05 12:11:23;;;;;;;3.33;1.30;;;13.00;73.30;;;;;;4171876;28;20064;-71
2021/12/05 12:13:30;;;;;;;2.58;1.10;;;13.00;73.10;;;;;;4188459;28;20068;-70
2021/12/05 12:15:36;;;;;;;4.07;1.40;;;13.00;72.90;;;;;;4188039;28;20052;-69
2021/12/05 12:17:39;;;;;;;2.03;1.00;;;12.90;72.80;;;;;;4187571;28;20116;-70
2021/12/05 12:19:43;;;;;;;2.55;1.38;;;12.90;72.70;;;;;;4187978;28;20349;-71
2021/12/05 12:21:48;;;;;;;2.25;1.27;;;13.00;72.90;;;;;;4187608;28;20121;-69
2021/12/05 12:23:56;;;;;;;3.83;1.10;;;12.90;72.80;;;;;;4183149;28;20076;-69
2021/12/05 12:26:04;;;;;;;3.50;1.20;;;12.90;72.80;;;;;;4188171;28;20072;-71
2021/12/05 12:28:09;;;;;;;2.50;1.05;;;13.00;72.70;;;;;;4186886;28;20365;-70
2021/12/05 12:30:18;;;;;;;2.60;1.08;;;12.90;72.70;;;;;;4187266;28;20108;-69
2021/12/05 12:32:27;;;;;;;2.35;0.98;;;12.90;72.60;;;;;;4187864;28;20072;-70
2021/12/05 12:34:30;;;;;;;1.90;1.10;;;12.90;72.60;;;;;;4187725;28;20288;-72
2021/12/05 12:36:36;;;;;;;2.50;1.00;;;13.00;72.70;;;;;;4187724;28;20273;-70
2021/12/05 12:38:42;;;;;;;1.67;0.88;;;13.00;72.60;;;;;;4186950;28;20397;-69
2021/12/05 12:40:49;;;;;;;3.35;1.30;;;12.90;72.60;;;;;;4170252;28;20104;-69
2021/12/05 12:42:52;;;;;;;2.22;1.00;;;12.90;72.70;;;;;;4189317;28;20071;-69
2021/12/05 12:45:07;;;;;;;2.25;0.93;;;12.90;72.60;;;;;;4190896;28;20108;-70
2021/12/05 12:47:10;;;;;;;2.58;1.08;;;12.90;72.70;;;;;;4190783;28;20116;-69
2021/12/05 12:49:26;;;;;;;2.33;1.20;;;13.00;72.70;;;;;;4190859;28;20064;-70
2021/12/05 12:51:34;;;;;;;1.85;0.98;;;12.90;72.70;;;;;;4190863;28;20102;-70
2021/12/05 12:53:41;;;;;;;2.78;0.80;;;12.90;72.70;;;;;;4190486;28;20059;-69
2021/12/05 12:55:52;;;;;;;1.60;1.02;;;13.00;72.80;;;;;;4190712;28;20114;-69
2021/12/05 12:57:55;;;;;;;2.47;1.20;;;12.90;72.70;;;;;;4191140;28;20116;-71
2021/12/05 13:00:05;;;;;;;2.15;1.02;;;12.90;72.60;;;;;;4190704;28;20064;-70
2021/12/05 13:02:28;;;;;;;1.67;1.10;;;12.90;72.70;;;;;;4173975;28;20353;-70
2021/12/05 13:07:23;;;;;;;1.13;0.88;;;13.00;72.80;;;;;;4190478;28;20069;-70
2021/12/05 13:12:01;;;;;;;1.58;1.10;;;12.90;73.30;;;;;;4190417;28;20116;-70
2021/12/05 13:14:06;;;;;;;3.13;1.05;;;12.90;72.60;;;;;;4190021;28;20342;-70
2021/12/05 13:16:12;;;;;;;1.40;1.05;;;12.90;72.70;;;;;;4173640;28;20107;-70
2021/12/05 13:18:25;;;;;;;1.52;0.90;;;12.90;72.70;;;;;;4173389;28;20124;-70
2021/12/05 13:20:56;;;;;;;2.60;1.15;;;12.90;72.70;;;;;;4172081;28;20116;-70
2021/12/05 13:23:03;;;;;;;2.28;1.42;;;13.00;72.70;;;;;;4156430;28;20070;-70
2021/12/05 13:25:09;;;;;;;1.73;0.95;;;12.90;72.60;;;;;;4184502;28;20064;-70
2021/12/05 13:27:29;;;;;;;1.10;1.00;;;13.00;72.70;;;;;;4190609;28;20073;-69
2021/12/05 13:29:33;;;;;;;2.13;1.27;;;13.00;72.70;;;;;;4189967;28;20075;-71
2021/12/05 13:31:47;;;;;;;2.53;1.30;;;13.00;72.70;;;;;;4190146;28;20068;-69
2021/12/05 13:34:10;;;;;;;1.58;1.00;;;13.00;72.70;;;;;;4190431;28;20072;-70
2021/12/05 13:36:29;;;;;;;1.45;1.15;;;13.00;72.70;;;;;;4184810;28;20476;-69
2021/12/05 13:38:35;;;;;;;1.05;0.80;;;13.00;72.60;;;;;;4190015;28;20141;-70
2021/12/05 13:40:40;;;;;;;1.35;0.90;;;13.00;72.60;;;;;;4189725;28;20072;-70
2021/12/05 13:42:48;;;;;;;1.63;1.05;;;13.00;72.50;;;;;;4189705;28;20076;-69
2021/12/05 13:45:42;;;;;;;1.35;0.80;;;13.00;72.60;;;;;;4172589;28;20125;-73
2021/12/05 13:48:04;;;;;;;1.48;0.90;;;13.00;72.60;;;;;;4174643;28;20084;-73
2021/12/05 13:50:31;;;;;;;;;;;13.00;72.70;;;;;;4165366;28;20079;-69
2021/12/05 13:52:37;;;;;;;1.40;1.08;;;13.00;72.70;;;;;;4168774;28;19943;-71
2021/12/05 13:54:40;;;;;;;1.75;0.98;;;13.00;72.70;;;;;;4173392;28;20076;-70
2021/12/05 13:56:44;;;;;;;0.95;0.80;;;12.90;72.60;;;;;;4188938;28;20367;-70
2021/12/05 13:58:51;;;;;;;1.88;1.10;;;13.00;72.60;;;;;;4189659;28;20364;-71
2021/12/05 14:00:58;;;;;;;1.60;0.90;;;12.90;72.60;;;;;;4188711;28;20103;-70
2021/12/05 14:03:02;;;;;;;1.98;1.00;;;13.00;72.70;;;;;;4189486;28;20104;-70
2021/12/05 14:05:26;;;;;;;2.45;1.10;;;13.00;72.60;;;;;;4190009;28;20095;-70
2021/12/05 14:07:31;;;;;;;1.17;0.93;;;13.00;72.60;;;;;;4178006;28;20117;-70
2021/12/05 14:09:36;;;;;;;2.17;1.10;;;13.00;72.60;;;;;;4189951;28;20059;-70
2021/12/05 14:11:46;;;;;;;1.30;0.98;;;13.00;72.70;;;;;;4189541;28;20065;-69
2021/12/05 14:13:50;;;;;;;1.63;1.00;;;13.00;72.70;;;;;;4189651;28;20093;-70
2021/12/05 14:15:56;;;;;;;1.13;0.70;;;13.00;72.70;;;;;;4189081;28;20064;-70
2021/12/05 14:18:00;;;;;;;1.55;0.90;;;13.00;72.70;;;;;;4189484;28;20394;-70
2021/12/05 14:20:07;;;;;;;1.70;0.98;;;12.90;72.70;;;;;;4189547;28;20075;-69
2021/12/05 14:22:14;;;;;;;1.42;0.95;;;13.00;72.80;;;;;;4189203;28;20080;-69
2021/12/05 14:24:20;;;;;;;3.22;1.20;;;13.00;72.80;;;;;;4189685;28;20072;-70
2021/12/05 14:26:26;;;;;;;1.33;0.80;;;13.00;72.80;;;;;;4189368;28;20056;-69
2021/12/05 14:28:29;;;;;;;1.75;1.00;;;13.00;72.80;;;;;;4189779;28;20056;-70
2021/12/05 14:30:35;;;;;;;2.30;1.20;;;13.00;72.80;;;;;;4189595;28;20073;-69
2021/12/05 14:32:40;;;;;;;1.02;0.93;;;13.00;72.80;;;;;;4189855;28;20065;-70
2021/12/05 14:34:43;;;;;;;1.13;0.93;;;13.00;72.90;;;;;;4190733;28;20128;-69
2021/12/05 14:36:49;;;;;;;1.88;0.90;;;13.00;72.80;;;;;;4189614;28;20064;-70
2021/12/05 14:39:06;;;;;;;3.58;1.20;;;12.90;72.80;;;;;;4172614;28;20296;-69
2021/12/05 14:41:10;;;;;;;1.48;1.00;;;12.90;72.80;;;;;;4172931;28;20278;-69
2021/12/05 14:43:19;;;;;;;1.40;1.00;;;12.90;72.80;;;;;;4187697;28;20108;-69
2021/12/05 14:45:26;;;;;;;1.73;0.90;;;12.90;72.80;;;;;;4189264;28;20076;-69
2021/12/05 14:47:33;;;;;;;1.08;0.90;;;12.90;72.80;;;;;;4188413;28;20053;-69
2021/12/05 14:49:39;;;;;;;1.38;0.82;;;12.90;72.90;;;;;;4189221;28;20116;-69
2021/12/05 14:51:45;;;;;;;2.00;0.90;;;12.90;72.90;;;;;;4189172;28;20072;-70
2021/12/05 14:53:48;;;;;;;2.03;1.23;;;13.00;72.90;;;;;;4184286;28;20116;-69
2021/12/05 14:55:58;;;;;;;1.85;1.02;;;12.90;72.90;;;;;;4189278;28;20072;-69
2021/12/05 14:58:04;;;;;;;1.10;1.00;;;12.90;72.90;;;;;;4188660;28;20076;-70
2021/12/05 15:00:11;;;;;;;1.60;1.08;;;12.90;72.90;;;;;;4171528;28;20126;-69
2021/12/05 15:02:16;;;;;;;2.25;0.95;;;12.90;72.90;;;;;;4188790;28;20079;-73
2021/12/05 15:04:26;;;;;;;1.90;1.08;;;12.90;72.90;;;;;;4174748;28;20073;-70
2021/12/05 15:06:37;;;;;;;2.45;1.38;;;12.90;73.00;;;;;;4171728;28;20117;-72
2021/12/05 15:08:41;;;;;;;1.88;1.20;;;12.90;73.00;;;;;;4188644;28;20125;-69
2021/12/05 15:10:47;;;;;;;1.23;0.90;;;12.90;73.00;;;;;;4189416;28;20073;-70
2021/12/05 15:12:53;;;;;;;2.03;1.17;;;12.90;73.00;;;;;;4189225;28;20077;-69
2021/12/05 15:14:58;;;;;;;1.25;0.93;;;12.90;73.00;;;;;;4189017;28;20071;-69
2021/12/05 15:17:08;;;;;;;2.28;1.38;;;12.90;73.10;;;;;;4189234;28;20069;-69
2021/12/05 15:19:14;;;;;;;1.77;0.98;;;12.90;73.10;;;;;;4187963;28;20104;-69
2021/12/05 15:21:19;;;;;;;1.92;1.10;;;12.90;73.10;;;;;;4189183;28;20306;-69
2021/12/05 15:23:26;;;;;;;1.75;1.02;;;12.90;73.10;;;;;;4171343;28;20120;-70
2021/12/05 15:25:30;;;;;;;1.52;1.13;;;12.90;73.10;;;;;;4172313;28;20368;-70
2021/12/05 15:27:35;;;;;;;1.40;0.98;;;12.90;73.10;;;;;;4172423;28;20113;-70
2021/12/05 15:29:44;;;;;;;1.50;1.20;;;12.90;73.10;;;;;;4186478;28;20068;-70
2021/12/05 15:31:54;;;;;;;2.10;1.20;;;12.90;73.10;;;;;;4190199;28;20068;-71
2021/12/05 15:33:57;;;;;;;2.65;1.30;;;12.90;73.20;;;;;;4188269;28;20069;-71
2021/12/05 15:36:00;;;;;;;3.38;1.08;;;12.90;73.20;;;;;;4187654;28;20377;-69
2021/12/05 15:38:09;;;;;;;1.83;1.20;;;12.90;73.20;;;;;;4188453;28;20132;-69
2021/12/05 15:40:17;;;;;;;2.22;1.20;;;12.90;73.20;;;;;;4186446;28;20305;-71
2021/12/05 15:42:24;;;;;;;1.73;1.15;;;12.90;73.20;;;;;;4188100;28;20068;-70
2021/12/05 15:44:36;;;;;;;1.98;1.27;;;12.90;73.20;;;;;;4188031;28;20072;-69
2021/12/05 15:46:39;;;;;;;3.72;1.10;;;12.90;73.80;;;;;;4188089;28;20118;-69
2021/12/05 15:48:47;;;;;;;1.90;0.90;;;12.90;73.20;;;;;;4187871;28;20049;-69
2021/12/05 15:50:51;;;;;;;1.98;1.20;;;12.90;73.10;;;;;;4173331;28;20111;-70
2021/12/05 15:52:57;;;;;;;2.03;0.90;;;12.90;73.20;;;;;;4188170;28;20079;-69
2021/12/05 15:55:06;;;;;;;1.42;1.13;;;12.90;73.20;;;;;;4187903;28;20049;-69
2021/12/05 15:57:14;;;;;;;1.90;1.20;;;12.90;73.30;;;;;;4188391;28;20068;-69
2021/12/05 15:59:18;;;;;;;3.03;1.10;;;12.90;73.40;;;;;;4188106;28;20177;-69
2021/12/05 16:01:24;;;;;;;1.38;1.02;;;12.90;73.20;;;;;;4188155;28;20108;-69
2021/12/05 16:03:39;;;;;;;3.42;1.17;;;12.90;73.20;;;;;;4188567;28;20073;-68
2021/12/05 16:05:44;;;;;;;1.60;1.10;;;12.90;73.30;;;;;;4187830;28;20116;-69
2021/12/05 16:07:48;;;;;;;1.77;1.10;;;12.90;73.30;;;;;;4189131;28;20084;-70
2021/12/05 16:09:51;;;;;;;1.48;0.70;;;12.90;73.30;;;;;;4188575;28;20116;-68
2021/12/05 16:12:06;;;;;;;1.83;1.02;;;12.90;73.30;;;;;;4188329;28;20241;-69
2021/12/05 16:14:09;;;;;;;2.45;1.00;;;12.90;73.30;;;;;;4188035;28;20495;-69
2021/12/05 16:16:16;;;;;;;2.38;1.10;;;12.90;73.20;;;;;;4188377;28;20103;-69
2021/12/05 16:18:20;;;;;;;1.60;1.10;;;12.90;73.30;;;;;;4191576;28;20068;-70
2021/12/05 16:20:26;;;;;;;1.50;1.20;;;12.90;73.40;;;;;;4190932;28;20083;-69
2021/12/05 16:22:29;;;;;;;2.03;1.15;;;12.90;73.30;;;;;;4190538;28;20113;-70
2021/12/05 16:24:36;;;;;;;3.30;1.42;;;12.80;73.10;;;;;;4188536;28;20080;-69
2021/12/05 16:26:40;;;;;;;2.17;1.00;;;12.90;73.30;;;;;;4189372;28;20108;-70
2021/12/05 16:28:46;;;;;;;1.73;1.15;;;12.90;73.30;;;;;;4190606;28;20116;-70
2021/12/05 16:30:58;;;;;;;2.90;1.52;;;12.80;73.30;;;;;;4190641;28;20108;-69
2021/12/05 16:33:03;;;;;;;2.28;1.17;;;12.80;73.20;;;;;;4191088;28;20075;-69
2021/12/05 16:35:07;;;;;;;2.88;1.35;;;12.80;73.30;;;;;;4190896;28;20072;-69
2021/12/05 16:37:12;;;;;;;1.83;1.38;;;12.80;73.30;;;;;;4189487;28;20116;-70
2021/12/05 16:39:19;;;;;;;2.78;1.52;;;12.80;73.30;;;;;;4191298;28;20095;-69